createdAt,value
2022-12-20T00:01:09.972Z,8.20
2022-12-20T00:07:11.782Z,8.30
2022-12-20T00:13:14.158Z,8.20
2022-12-20T00:19:15.915Z,8.20
2022-12-20T00:25:17.711Z,8.20
2022-12-20T00:31:22.056Z,8.20
2022-12-20T00:37:23.813Z,8.20
2022-12-20T00:43:25.513Z,8.30
2022-12-20T00:49:27.241Z,8.50
2022-12-20T00:55:28.958Z,8.50
2022-12-20T01:01:33.177Z,8.60
2022-12-20T01:07:35.090Z,8.60
2022-12-20T01:13:39.524Z,8.70
2022-12-20T01:19:41.273Z,8.80
2022-12-20T01:25:43.072Z,8.80
2022-12-20T01:31:45.271Z,8.70
2022-12-20T01:37:47.117Z,8.80
2022-12-20T01:44:16.083Z,8.70
2022-12-20T01:50:18.075Z,8.60
2022-12-20T01:56:19.990Z,8.50
2022-12-20T02:02:22.035Z,8.30
2022-12-20T02:08:23.886Z,8.20
2022-12-20T02:14:44.947Z,8.10
2022-12-20T02:21:03.558Z,8.10
2022-12-20T02:27:23.445Z,8.20
2022-12-20T02:33:28.566Z,8.30
2022-12-20T02:39:32.091Z,8.50
2022-12-20T02:45:37.113Z,8.50
2022-12-20T02:51:41.563Z,8.60
2022-12-20T02:57:56.216Z,8.70
2022-12-20T03:04:03.017Z,8.60
2022-12-20T03:10:05.132Z,8.60
2022-12-20T03:16:07.747Z,8.60
2022-12-20T03:22:09.534Z,8.70
2022-12-20T03:28:11.294Z,8.70
2022-12-20T03:34:13.103Z,8.70
2022-12-20T03:40:16.089Z,8.80
2022-12-20T03:46:18.536Z,8.80
2022-12-20T03:52:20.335Z,8.80
2022-12-20T03:58:22.273Z,8.80
2022-12-20T04:04:24.136Z,8.90
2022-12-20T04:10:25.900Z,8.80
2022-12-20T04:16:29.414Z,8.80
2022-12-20T04:22:31.242Z,8.90
2022-12-20T04:28:33.947Z,8.90
2022-12-20T04:34:35.743Z,8.80
2022-12-20T04:40:37.576Z,8.70
2022-12-20T04:46:39.537Z,8.70
2022-12-20T04:52:59.940Z,8.50
2022-12-20T04:59:02.577Z,8.50
2022-12-20T05:05:04.706Z,8.30
2022-12-20T05:11:07.084Z,8.20
2022-12-20T05:17:09.823Z,8.10
2022-12-20T05:23:30.352Z,7.90
2022-12-20T05:29:32.186Z,7.80
2022-12-20T05:35:33.888Z,7.70
2022-12-20T05:41:35.748Z,7.70
2022-12-20T05:47:39.017Z,7.70
2022-12-20T05:53:40.959Z,7.70
2022-12-20T05:59:42.714Z,7.80
2022-12-20T06:05:45.146Z,7.80
2022-12-20T06:11:47.672Z,7.80
2022-12-20T06:17:49.435Z,8.00
2022-12-20T06:23:51.222Z,7.90
2022-12-20T06:29:54.533Z,8.10
2022-12-20T06:35:56.535Z,8.20
2022-12-20T06:41:58.240Z,8.30
2022-12-20T06:48:00.043Z,8.30
2022-12-20T06:54:01.878Z,8.30
2022-12-20T07:00:05.070Z,8.40
2022-12-20T07:06:06.985Z,8.30
2022-12-20T07:12:12.131Z,8.40
2022-12-20T07:18:13.924Z,8.40
2022-12-20T07:24:15.702Z,8.40
2022-12-20T07:30:19.084Z,8.40
2022-12-20T07:36:21.071Z,8.40
2022-12-20T07:42:22.942Z,8.50
2022-12-20T07:48:24.907Z,8.60
2022-12-20T07:54:33.412Z,8.60
2022-12-20T08:00:36.024Z,8.30
2022-12-20T08:06:43.434Z,8.20
2022-12-20T08:12:47.216Z,8.30
2022-12-20T08:18:49.020Z,8.40
2022-12-20T08:24:50.717Z,8.40
2022-12-20T08:30:52.554Z,8.30
2022-12-20T08:36:54.516Z,8.30
2022-12-20T08:42:56.196Z,8.40
2022-12-20T08:48:57.944Z,8.50
2022-12-20T08:55:01.785Z,8.50
2022-12-20T09:01:10.110Z,8.50
2022-12-20T09:07:12.126Z,8.50
2022-12-20T09:13:13.961Z,8.70
2022-12-20T09:19:16.047Z,8.80
2022-12-20T09:25:17.837Z,8.70
2022-12-20T09:31:22.621Z,8.80
2022-12-20T09:37:24.520Z,8.80
2022-12-20T09:43:26.905Z,8.80
2022-12-20T09:49:33.682Z,8.90
2022-12-20T09:55:50.680Z,9.10
2022-12-20T10:01:53.145Z,9.20
2022-12-20T10:08:07.997Z,9.40
2022-12-20T10:14:28.645Z,9.70
2022-12-20T10:20:47.174Z,10.10
2022-12-20T10:26:50.934Z,10.40
2022-12-20T10:32:55.664Z,10.40
2022-12-20T10:39:00.066Z,10.50
2022-12-20T10:45:02.473Z,10.70
2022-12-20T10:51:16.634Z,10.70
2022-12-20T10:57:25.633Z,10.70
2022-12-20T11:03:29.571Z,10.70
2022-12-20T11:09:37.614Z,10.70
2022-12-20T11:15:49.658Z,10.60
2022-12-20T11:22:20.579Z,10.60
2022-12-20T11:28:46.705Z,10.40
2022-12-20T11:35:11.183Z,10.50
2022-12-20T11:41:21.204Z,10.40
2022-12-20T11:47:48.054Z,10.50
2022-12-20T11:54:17.670Z,10.40
2022-12-20T12:00:22.654Z,10.40
2022-12-20T12:06:30.112Z,10.50
2022-12-20T12:12:44.924Z,10.60
2022-12-20T12:18:46.997Z,10.70
2022-12-20T12:24:52.875Z,10.60
2022-12-20T12:30:59.567Z,10.70
2022-12-20T12:37:37.141Z,10.80
2022-12-20T12:43:52.322Z,10.90
2022-12-20T12:49:56.226Z,10.90
2022-12-20T12:56:19.456Z,10.80
2022-12-20T13:02:27.412Z,10.80
2022-12-20T13:08:49.251Z,10.60
2022-12-20T13:14:51.128Z,10.70
2022-12-20T13:21:29.534Z,10.60
2022-12-20T13:27:40.389Z,10.50
2022-12-20T13:33:44.793Z,10.30
2022-12-20T13:39:48.382Z,10.20
2022-12-20T13:45:57.500Z,10.10
2022-12-20T13:52:11.373Z,10.20
2022-12-20T13:58:17.838Z,10.10
2022-12-20T14:04:20.780Z,10.10
2022-12-20T14:10:28.822Z,10.10
2022-12-20T14:16:33.027Z,10.00
2022-12-20T14:22:36.207Z,10.00
2022-12-20T14:28:39.418Z,10.10
2022-12-20T14:34:43.454Z,10.10
2022-12-20T14:40:50.464Z,10.20
2022-12-20T14:47:26.041Z,10.30
2022-12-20T14:53:28.996Z,10.10
2022-12-20T14:59:31.708Z,10.10
2022-12-20T15:05:38.336Z,10.10
2022-12-20T15:11:43.266Z,10.10
2022-12-20T15:17:45.875Z,10.20
2022-12-20T15:23:52.659Z,10.20
2022-12-20T15:29:54.500Z,10.20
2022-12-20T15:35:56.315Z,10.30
2022-12-20T15:42:01.621Z,10.40
2022-12-20T15:48:03.366Z,10.40
2022-12-20T15:54:22.666Z,10.20
2022-12-20T16:00:25.585Z,10.10
2022-12-20T16:06:27.288Z,9.90
2022-12-20T16:12:33.254Z,9.80
2022-12-20T16:18:35.053Z,9.70
2022-12-20T16:24:36.805Z,9.70
2022-12-20T16:30:38.874Z,9.70
2022-12-20T16:36:41.107Z,9.60
2022-12-20T16:42:44.016Z,9.50
2022-12-20T16:48:46.356Z,9.40
2022-12-20T16:54:48.089Z,9.30
2022-12-20T17:00:50.987Z,9.30
2022-12-20T17:06:52.816Z,9.20
2022-12-20T17:12:54.872Z,9.20
2022-12-20T17:19:00.146Z,9.20
2022-12-20T17:25:02.051Z,9.20
2022-12-20T17:31:08.258Z,9.20
2022-12-20T17:37:10.333Z,9.20
2022-12-20T17:43:14.009Z,9.20
2022-12-20T17:49:16.533Z,9.10
2022-12-20T17:55:28.843Z,9.20
2022-12-20T18:01:32.982Z,9.10
2022-12-20T18:07:34.716Z,9.10
2022-12-20T18:13:37.192Z,9.10
2022-12-20T18:19:39.511Z,9.00
2022-12-20T18:25:41.301Z,9.00
2022-12-20T18:31:43.058Z,8.90
2022-12-20T18:37:44.788Z,8.90
2022-12-20T18:43:46.789Z,8.90
2022-12-20T18:49:48.494Z,8.80
2022-12-20T18:55:50.199Z,8.80
2022-12-20T19:01:52.708Z,8.80
2022-12-20T19:07:54.680Z,8.70
2022-12-20T19:13:56.999Z,8.60
2022-12-20T19:19:58.744Z,8.50
2022-12-20T19:26:05.211Z,8.50
2022-12-20T19:32:07.421Z,8.40
2022-12-20T19:38:09.379Z,8.40
2022-12-20T19:44:11.204Z,8.40
2022-12-20T19:50:13.029Z,8.40
2022-12-20T19:56:16.932Z,8.30
2022-12-20T20:02:19.027Z,8.30
2022-12-20T20:08:20.940Z,8.30
2022-12-20T20:14:22.980Z,8.20
2022-12-20T20:20:24.967Z,8.30
2022-12-20T20:26:29.274Z,8.30
2022-12-20T20:32:31.992Z,8.20
2022-12-20T20:38:34.998Z,8.20
2022-12-20T20:44:36.701Z,8.30
2022-12-20T20:50:38.489Z,8.30
2022-12-20T20:56:40.229Z,8.30
2022-12-20T21:02:42.474Z,8.30
2022-12-20T21:08:44.684Z,8.30
2022-12-20T21:15:20.681Z,8.30
2022-12-20T21:21:10.765Z,8.30
2022-12-20T21:27:12.540Z,8.30
2022-12-20T21:33:14.298Z,8.30
2022-12-20T21:39:16.318Z,8.30
2022-12-20T21:45:18.988Z,8.30
2022-12-20T21:51:22.961Z,8.40
2022-12-20T21:57:25.379Z,8.40
2022-12-20T22:03:27.183Z,8.40
2022-12-20T22:09:29.008Z,8.30
2022-12-20T22:15:31.892Z,8.30
2022-12-20T22:21:35.099Z,8.40
2022-12-20T22:27:36.848Z,8.50
2022-12-20T22:33:39.383Z,8.50
2022-12-20T22:39:41.150Z,8.60
2022-12-20T22:45:42.894Z,8.80
2022-12-20T22:51:50.348Z,8.90
2022-12-20T22:58:00.971Z,9.00
2022-12-20T23:04:02.820Z,8.90
2022-12-20T23:10:24.916Z,8.80
2022-12-20T23:16:27.707Z,8.80
2022-12-20T23:22:38.574Z,8.60
2022-12-20T23:28:40.681Z,8.70
2022-12-20T23:34:42.438Z,8.80
2022-12-20T23:40:44.683Z,8.70
2022-12-20T23:46:46.424Z,8.70
2022-12-20T23:52:48.124Z,8.80
2022-12-20T23:58:54.501Z,8.80
